createdAt,value
2022-10-28T00:01:30.568Z,28.83
2022-10-28T00:04:00.102Z,27.33
2022-10-28T00:06:30.712Z,29.42
2022-10-28T00:09:01.086Z,27.30
2022-10-28T00:11:31.974Z,26.30
2022-10-28T00:14:01.876Z,29.05
2022-10-28T00:16:34.884Z,25.25
2022-10-28T00:19:03.772Z,21.63
2022-10-28T00:21:34.439Z,18.45
2022-10-28T00:24:01.640Z,19.33
2022-10-28T00:26:33.646Z,17.67
2022-10-28T00:29:06.520Z,19.90
2022-10-28T00:31:36.434Z,19.15
2022-10-28T00:34:07.019Z,19.13
2022-10-28T00:36:40.266Z,20.02
2022-10-28T00:39:19.155Z,27.23
2022-10-28T00:41:57.845Z,25.83
2022-10-28T00:44:42.773Z,23.40
2022-10-28T00:47:25.172Z,25.42
2022-10-28T00:49:57.346Z,20.55
2022-10-28T00:52:29.846Z,22.02
2022-10-28T00:55:01.665Z,23.00
2022-10-28T00:57:33.730Z,23.85
2022-10-28T01:00:02.856Z,27.35
2022-10-28T01:02:34.410Z,20.67
2022-10-28T01:05:01.833Z,20.73
2022-10-28T01:07:30.084Z,20.48
2022-10-28T01:09:57.462Z,19.77
2022-10-28T01:12:37.854Z,21.73
2022-10-28T01:15:15.855Z,19.40
2022-10-28T01:17:58.085Z,20.98
2022-10-28T01:20:40.913Z,19.83
2022-10-28T01:23:31.169Z,21.85
2022-10-28T01:26:04.058Z,21.23
2022-10-28T01:29:08.453Z,22.85
2022-10-28T01:34:31.597Z,26.08
2022-10-28T01:37:12.871Z,29.17
2022-10-28T01:40:06.148Z,33.03
2022-10-28T01:42:39.668Z,29.67
2022-10-28T01:45:26.883Z,29.30
2022-10-28T01:48:10.113Z,23.67
2022-10-28T01:50:48.762Z,26.92
2022-10-28T01:53:23.705Z,28.92
2022-10-28T01:55:58.749Z,28.67
2022-10-28T01:58:29.937Z,27.27
2022-10-28T02:01:00.520Z,26.40
2022-10-28T02:03:28.454Z,25.48
2022-10-28T02:06:03.599Z,26.73
2022-10-28T02:08:44.063Z,26.52
2022-10-28T02:11:30.086Z,28.63
2022-10-28T02:14:11.393Z,29.95
2022-10-28T02:16:48.296Z,27.52
2022-10-28T02:19:43.133Z,23.73
2022-10-28T02:22:22.217Z,26.88
2022-10-28T02:25:02.000Z,26.20
2022-10-28T02:27:32.483Z,27.33
2022-10-28T02:30:14.011Z,30.05
2022-10-28T02:32:46.968Z,26.98
2022-10-28T02:35:22.802Z,24.13
2022-10-28T02:37:51.647Z,24.50
2022-10-28T02:40:26.569Z,24.42
2022-10-28T02:43:00.148Z,22.13
2022-10-28T02:45:51.807Z,25.05
2022-10-28T02:48:26.185Z,22.98
2022-10-28T02:51:11.764Z,24.50
2022-10-28T02:54:04.517Z,23.83
2022-10-28T02:56:37.339Z,20.50
2022-10-28T02:59:09.760Z,26.88
2022-10-28T03:01:37.402Z,25.70
2022-10-28T03:04:05.167Z,22.30
2022-10-28T03:06:34.496Z,22.00
2022-10-28T03:09:06.477Z,19.67
2022-10-28T03:11:33.731Z,20.10
2022-10-28T03:14:01.197Z,19.20
2022-10-28T03:16:28.475Z,19.27
2022-10-28T03:18:58.534Z,20.15
2022-10-28T03:21:25.830Z,22.95
2022-10-28T03:23:53.384Z,19.48
2022-10-28T03:26:20.632Z,17.05
2022-10-28T03:28:48.052Z,20.95
2022-10-28T03:31:15.322Z,20.63
2022-10-28T03:33:45.119Z,21.75
2022-10-28T03:36:12.203Z,18.25
2022-10-28T03:38:42.296Z,20.50
2022-10-28T03:41:09.921Z,20.58
2022-10-28T03:43:37.136Z,18.90
2022-10-28T03:46:06.516Z,18.17
2022-10-28T03:48:34.077Z,20.20
2022-10-28T03:51:01.201Z,21.70
2022-10-28T03:53:31.197Z,22.05
2022-10-28T03:56:02.906Z,22.85
2022-10-28T03:58:30.592Z,24.42
2022-10-28T04:00:57.752Z,20.35
2022-10-28T04:03:27.427Z,18.08
2022-10-28T04:05:56.814Z,19.67
2022-10-28T04:08:24.352Z,18.10
2022-10-28T04:10:51.549Z,20.45
2022-10-28T04:13:21.359Z,17.30
2022-10-28T04:15:50.655Z,17.30
2022-10-28T04:18:17.951Z,17.38
2022-10-28T04:20:46.323Z,17.00
2022-10-28T04:23:18.213Z,18.20
2022-10-28T04:25:45.713Z,17.58
2022-10-28T04:28:13.185Z,15.50
2022-10-28T04:30:42.463Z,15.80
2022-10-28T04:33:12.581Z,15.73
2022-10-28T04:35:40.233Z,16.55
2022-10-28T04:38:07.475Z,15.88
2022-10-28T04:40:34.804Z,16.50
2022-10-28T04:43:02.135Z,16.52
2022-10-28T04:45:29.266Z,17.63
2022-10-28T04:47:58.039Z,22.35
2022-10-28T04:50:25.284Z,18.60
2022-10-28T04:52:52.857Z,16.88
2022-10-28T04:55:20.846Z,22.23
2022-10-28T04:58:01.242Z,21.05
2022-10-28T05:00:31.094Z,22.02
2022-10-28T05:03:01.650Z,17.05
2022-10-28T05:05:28.832Z,21.25
2022-10-28T05:07:56.546Z,19.17
2022-10-28T05:10:24.040Z,15.23
2022-10-28T05:12:51.267Z,16.38
2022-10-28T05:15:18.466Z,21.35
2022-10-28T05:17:47.314Z,20.98
2022-10-28T05:20:17.441Z,17.45
2022-10-28T05:22:52.884Z,18.80
2022-10-28T05:25:21.951Z,19.42
2022-10-28T05:27:51.979Z,20.55
2022-10-28T05:30:19.424Z,21.23
2022-10-28T05:32:51.552Z,20.48
2022-10-28T05:35:21.624Z,24.27
2022-10-28T05:37:49.431Z,23.25
2022-10-28T05:40:16.485Z,21.50
2022-10-28T05:42:44.038Z,21.45
2022-10-28T05:45:12.164Z,17.75
2022-10-28T05:47:47.104Z,19.27
2022-10-28T05:50:19.132Z,18.52
2022-10-28T05:52:47.590Z,14.97
2022-10-28T05:55:15.606Z,17.65
2022-10-28T05:57:43.376Z,15.57
2022-10-28T06:00:11.316Z,20.15
2022-10-28T06:02:42.004Z,15.63
2022-10-28T06:05:12.098Z,16.45
2022-10-28T06:07:42.337Z,19.45
2022-10-28T06:10:11.056Z,15.13
2022-10-28T06:12:38.101Z,14.77
2022-10-28T06:15:05.610Z,18.55
2022-10-28T06:17:33.752Z,11.63
2022-10-28T06:20:01.887Z,14.90
2022-10-28T06:22:31.586Z,11.18
2022-10-28T06:25:00.958Z,12.95
2022-10-28T06:27:33.891Z,14.07
2022-10-28T06:30:01.047Z,15.18
2022-10-28T06:32:28.398Z,12.55
2022-10-28T06:34:55.634Z,14.05
2022-10-28T06:37:22.873Z,11.52
2022-10-28T06:39:49.922Z,12.68
2022-10-28T06:42:17.852Z,10.88
2022-10-28T06:44:49.558Z,10.13
2022-10-28T06:47:21.410Z,10.40
2022-10-28T06:49:50.817Z,11.55
2022-10-28T06:52:20.570Z,16.17
2022-10-28T06:54:47.852Z,14.18
2022-10-28T06:57:17.770Z,17.00
2022-10-28T06:59:44.948Z,18.55
2022-10-28T07:02:19.919Z,15.27
2022-10-28T07:04:47.362Z,14.48
2022-10-28T07:07:19.606Z,14.18
2022-10-28T07:09:47.101Z,14.05
2022-10-28T07:12:14.309Z,12.25
2022-10-28T07:14:41.652Z,14.13
2022-10-28T07:17:09.005Z,13.93
2022-10-28T07:19:36.284Z,13.13
2022-10-28T07:22:03.393Z,15.43
2022-10-28T07:24:33.599Z,13.27
2022-10-28T07:27:00.818Z,12.45
2022-10-28T07:29:30.762Z,13.63
2022-10-28T07:31:58.441Z,11.75
2022-10-28T07:34:27.352Z,12.68
2022-10-28T07:36:57.896Z,14.38
2022-10-28T07:39:27.913Z,13.60
2022-10-28T07:41:55.420Z,13.32
2022-10-28T07:44:22.721Z,12.23
2022-10-28T07:46:52.993Z,13.38
2022-10-28T07:49:25.847Z,13.75
2022-10-28T07:51:53.175Z,13.35
2022-10-28T07:54:20.472Z,11.80
2022-10-28T07:56:49.851Z,11.40
2022-10-28T07:59:17.688Z,11.02
2022-10-28T08:01:44.891Z,13.27
2022-10-28T08:04:12.454Z,12.40
2022-10-28T08:06:39.740Z,8.98
2022-10-28T08:09:07.040Z,9.70
2022-10-28T08:11:34.351Z,8.30
2022-10-28T08:14:02.671Z,11.77
2022-10-28T08:16:30.063Z,8.52
2022-10-28T08:18:57.439Z,9.82
2022-10-28T08:21:25.137Z,8.10
2022-10-28T08:23:55.840Z,6.63
2022-10-28T08:26:23.015Z,8.45
2022-10-28T08:28:53.197Z,10.13
2022-10-28T08:31:22.727Z,12.63
2022-10-28T08:33:50.033Z,8.02
2022-10-28T08:36:17.483Z,12.32
2022-10-28T08:38:47.263Z,9.40
2022-10-28T08:41:39.861Z,10.82
2022-10-28T08:44:16.004Z,7.55
2022-10-28T08:46:48.993Z,10.07
2022-10-28T08:49:22.077Z,10.63
2022-10-28T08:52:32.869Z,9.57
2022-10-28T08:55:06.607Z,10.55
2022-10-28T08:57:48.715Z,10.55
2022-10-28T09:00:23.515Z,6.70
2022-10-28T09:03:13.883Z,7.38
2022-10-28T09:05:49.385Z,11.07
2022-10-28T09:08:25.597Z,8.88
2022-10-28T09:11:06.067Z,7.85
2022-10-28T09:13:41.565Z,7.50
2022-10-28T09:16:33.794Z,7.65
2022-10-28T09:19:27.527Z,7.40
2022-10-28T09:22:22.868Z,5.38
2022-10-28T09:24:59.459Z,8.55
2022-10-28T09:28:17.955Z,5.90
2022-10-28T09:31:09.183Z,6.95
2022-10-28T09:34:03.291Z,6.50
2022-10-28T09:36:39.723Z,7.35
2022-10-28T09:39:17.757Z,5.95
2022-10-28T09:41:50.014Z,5.97
2022-10-28T09:44:44.160Z,5.82
2022-10-28T09:47:58.429Z,9.98
2022-10-28T09:50:30.490Z,10.63
2022-10-28T09:53:16.537Z,6.82
2022-10-28T09:55:44.013Z,9.13
2022-10-28T09:58:12.970Z,9.45
2022-10-28T10:00:40.925Z,6.80
2022-10-28T10:03:08.418Z,9.57
2022-10-28T10:05:43.550Z,8.07
2022-10-28T10:08:15.147Z,9.95
2022-10-28T10:10:56.536Z,7.57
2022-10-28T10:13:35.657Z,8.35
2022-10-28T10:16:17.735Z,7.63
2022-10-28T10:18:50.307Z,5.22
2022-10-28T10:21:41.473Z,5.07
2022-10-28T10:24:35.171Z,7.95
2022-10-28T10:27:10.649Z,6.68
2022-10-28T10:29:45.400Z,7.00
2022-10-28T10:32:18.364Z,6.47
2022-10-28T10:34:56.615Z,35.53
2022-10-28T10:37:27.921Z,18.42
2022-10-28T10:40:19.922Z,6.30
2022-10-28T10:45:37.054Z,6.47
2022-10-28T10:48:15.544Z,6.43
2022-10-28T10:50:46.219Z,5.05
2022-10-28T10:53:25.362Z,5.22
2022-10-28T10:55:58.939Z,6.75
2022-10-28T10:58:30.017Z,6.45
2022-10-28T11:01:01.911Z,6.88
2022-10-28T11:03:38.773Z,8.43
2022-10-28T11:06:24.744Z,8.02
2022-10-28T11:09:01.638Z,6.43
2022-10-28T11:11:40.230Z,8.45
2022-10-28T11:14:10.579Z,6.82
2022-10-28T11:17:00.543Z,7.03
2022-10-28T11:19:35.099Z,6.10
2022-10-28T11:25:19.584Z,9.73
2022-10-28T11:27:48.690Z,7.05
2022-10-28T11:30:26.223Z,8.45
2022-10-28T11:36:04.651Z,8.90
2022-10-28T11:39:15.339Z,8.77
2022-10-28T11:42:00.446Z,7.07
2022-10-28T11:47:28.424Z,6.38
2022-10-28T11:50:23.048Z,5.97
2022-10-28T11:53:15.431Z,7.00
2022-10-28T11:56:12.966Z,6.20
2022-10-28T11:58:58.210Z,8.35
2022-10-28T12:01:53.249Z,8.63
2022-10-28T12:04:27.142Z,6.10
2022-10-28T12:07:02.937Z,9.48
2022-10-28T12:09:48.950Z,8.95
2022-10-28T12:12:51.439Z,8.57
2022-10-28T12:15:40.247Z,4.78
2022-10-28T12:18:16.097Z,6.15
2022-10-28T12:20:58.000Z,6.57
2022-10-28T12:23:27.221Z,7.25
2022-10-28T12:25:57.766Z,9.20
2022-10-28T12:28:30.466Z,12.13
2022-10-28T12:33:42.050Z,7.13
2022-10-28T12:36:09.766Z,8.50
2022-10-28T12:38:53.908Z,7.53
2022-10-28T12:42:02.452Z,7.18
2022-10-28T12:44:32.368Z,8.20
2022-10-28T12:47:43.263Z,8.32
2022-10-28T12:50:19.684Z,9.45
2022-10-28T12:53:05.527Z,7.75
2022-10-28T12:55:48.621Z,8.63
2022-10-28T12:58:24.155Z,8.15
2022-10-28T13:01:15.787Z,8.43
2022-10-28T13:03:43.531Z,9.23
2022-10-28T13:09:25.675Z,13.02
2022-10-28T13:12:18.307Z,10.30
2022-10-28T13:15:04.652Z,9.55
2022-10-28T13:18:03.666Z,7.10
2022-10-28T13:20:54.577Z,21.30
2022-10-28T13:23:24.963Z,30.67
2022-10-28T13:26:10.100Z,64.50
2022-10-28T13:28:46.504Z,14.50
2022-10-28T13:31:15.204Z,23.35
2022-10-28T13:33:59.319Z,14.82
2022-10-28T13:36:30.540Z,12.13
2022-10-28T13:39:06.168Z,12.52
2022-10-28T13:41:42.229Z,10.57
2022-10-28T13:44:25.780Z,12.90
2022-10-28T13:46:59.603Z,10.52
2022-10-28T13:49:30.722Z,12.27
2022-10-28T13:52:23.245Z,17.60
2022-10-28T13:54:54.795Z,12.65
2022-10-28T13:57:38.119Z,9.95
2022-10-28T14:02:59.097Z,10.02
2022-10-28T14:05:32.762Z,10.10
2022-10-28T14:08:07.111Z,10.57
2022-10-28T14:10:38.461Z,11.30
2022-10-28T14:13:21.647Z,10.13
2022-10-28T14:15:50.180Z,9.85
2022-10-28T14:21:05.560Z,9.95
2022-10-28T14:23:32.874Z,14.60
2022-10-28T14:26:03.298Z,9.52
2022-10-28T14:28:30.653Z,10.00
2022-10-28T14:31:10.036Z,11.43
2022-10-28T14:33:43.007Z,10.02
2022-10-28T14:36:19.261Z,9.63
2022-10-28T14:39:01.268Z,12.98
2022-10-28T14:41:47.745Z,12.13
2022-10-28T14:44:46.013Z,10.48
2022-10-28T14:47:42.584Z,9.60
2022-10-28T14:50:22.248Z,10.00
2022-10-28T14:52:54.717Z,10.75
2022-10-28T14:55:28.091Z,12.70
2022-10-28T14:58:22.245Z,10.52
2022-10-28T15:01:21.147Z,10.38
2022-10-28T15:04:02.452Z,15.88
2022-10-28T15:06:36.322Z,10.40
2022-10-28T15:09:06.048Z,13.00
2022-10-28T15:11:35.634Z,8.15
2022-10-28T15:14:26.273Z,10.32
2022-10-28T15:16:54.112Z,9.48
2022-10-28T15:19:24.430Z,11.20
2022-10-28T15:22:05.096Z,12.90
2022-10-28T15:24:32.985Z,12.02
2022-10-28T15:27:00.282Z,12.25
2022-10-28T15:29:28.006Z,10.55
2022-10-28T15:32:14.490Z,9.50
2022-10-28T15:34:42.573Z,12.63
2022-10-28T15:37:10.266Z,13.07
2022-10-28T15:39:38.943Z,12.98
2022-10-28T15:42:25.901Z,14.50
2022-10-28T15:44:56.336Z,14.68
2022-10-28T15:47:31.763Z,12.35
2022-10-28T15:50:17.638Z,13.55
2022-10-28T15:52:46.544Z,14.93
2022-10-28T15:55:23.726Z,13.75
2022-10-28T15:58:31.424Z,12.30
2022-10-28T16:01:01.468Z,12.02
2022-10-28T16:03:48.876Z,12.00
2022-10-28T16:06:25.151Z,11.85
2022-10-28T16:09:01.235Z,11.93
2022-10-28T16:11:30.516Z,11.48
2022-10-28T16:13:58.876Z,13.85
2022-10-28T16:16:32.020Z,11.30
2022-10-28T16:19:02.763Z,12.25
2022-10-28T16:21:31.639Z,17.35
2022-10-28T16:24:02.563Z,13.98
2022-10-28T16:26:32.053Z,12.27
2022-10-28T16:28:59.388Z,9.77
2022-10-28T16:31:29.389Z,10.10
2022-10-28T16:33:58.833Z,13.30
2022-10-28T16:36:26.332Z,15.18
2022-10-28T16:38:55.638Z,11.68
2022-10-28T16:41:24.212Z,11.85
2022-10-28T16:43:53.922Z,12.63
2022-10-28T16:46:23.791Z,12.85
2022-10-28T16:48:50.973Z,19.58
2022-10-28T16:51:20.805Z,15.10
2022-10-28T16:53:51.294Z,15.40
2022-10-28T16:56:18.765Z,11.48
2022-10-28T16:58:45.914Z,11.70
2022-10-28T17:01:17.738Z,11.50
2022-10-28T17:03:44.992Z,12.68
2022-10-28T17:06:12.408Z,15.85
2022-10-28T17:11:26.899Z,14.10
2022-10-28T17:13:54.335Z,15.98
2022-10-28T17:16:24.070Z,15.90
2022-10-28T17:18:51.349Z,13.60
2022-10-28T17:21:19.200Z,11.38
2022-10-28T17:23:46.191Z,15.07
2022-10-28T17:26:13.950Z,12.77
2022-10-28T17:28:40.918Z,11.02
2022-10-28T17:31:09.081Z,13.57
2022-10-28T17:33:36.908Z,12.65
2022-10-28T17:36:06.773Z,13.80
2022-10-28T17:38:34.076Z,16.23
2022-10-28T17:41:01.695Z,14.18
2022-10-28T17:43:29.194Z,16.60
2022-10-28T17:46:05.732Z,14.25
2022-10-28T17:48:34.379Z,15.13
2022-10-28T17:51:01.686Z,15.10
2022-10-28T17:53:31.610Z,16.33
2022-10-28T17:56:00.201Z,16.33
2022-10-28T17:58:28.402Z,15.75
2022-10-28T18:01:00.174Z,16.50
2022-10-28T18:03:30.683Z,14.00
2022-10-28T18:06:05.841Z,15.73
2022-10-28T18:08:37.146Z,14.95
2022-10-28T18:11:08.099Z,27.33
2022-10-28T18:13:40.615Z,18.20
2022-10-28T18:16:11.910Z,16.83
2022-10-28T18:18:42.488Z,16.42
2022-10-28T18:21:14.025Z,17.27
2022-10-28T18:23:41.490Z,17.40
2022-10-28T18:26:15.347Z,14.52
2022-10-28T18:28:45.298Z,15.70
2022-10-28T18:31:13.496Z,17.13
2022-10-28T18:33:42.355Z,11.90
2022-10-28T18:36:15.425Z,16.08
2022-10-28T18:38:42.878Z,14.37
2022-10-28T18:41:21.352Z,17.52
2022-10-28T18:43:52.307Z,14.27
2022-10-28T18:46:20.153Z,13.30
2022-10-28T18:48:47.260Z,11.63
2022-10-28T18:51:15.066Z,15.43
2022-10-28T18:53:44.609Z,11.95
2022-10-28T18:56:23.990Z,14.18
2022-10-28T18:58:51.817Z,11.98
2022-10-28T19:01:22.185Z,12.43
2022-10-28T19:03:57.777Z,14.32
2022-10-28T19:06:28.431Z,13.65
2022-10-28T19:08:58.135Z,14.45
2022-10-28T19:11:29.167Z,10.75
2022-10-28T19:13:58.072Z,13.73
2022-10-28T19:16:28.193Z,12.38
2022-10-28T19:18:58.455Z,12.90
2022-10-28T19:21:28.954Z,11.20
2022-10-28T19:23:59.351Z,13.20
2022-10-28T19:26:26.863Z,16.98
2022-10-28T19:28:56.895Z,22.58
2022-10-28T19:31:29.705Z,13.02
2022-10-28T19:33:57.239Z,13.38
2022-10-28T19:36:26.809Z,13.98
2022-10-28T19:38:57.701Z,12.85
2022-10-28T19:41:27.187Z,17.77
2022-10-28T19:44:01.288Z,13.52
2022-10-28T19:46:33.181Z,13.52
2022-10-28T19:49:02.657Z,11.65
2022-10-28T19:51:36.042Z,11.70
2022-10-28T19:56:33.671Z,11.75
2022-10-28T19:59:02.466Z,12.60
2022-10-28T20:01:34.780Z,9.95
2022-10-28T20:04:09.357Z,11.52
2022-10-28T20:06:41.175Z,14.13
2022-10-28T20:09:10.914Z,12.68
2022-10-28T20:11:39.756Z,15.85
2022-10-28T20:14:09.327Z,14.20
2022-10-28T20:16:41.400Z,11.98
2022-10-28T20:19:09.320Z,16.27
2022-10-28T20:21:39.317Z,10.23
2022-10-28T20:24:07.937Z,9.93
2022-10-28T20:26:36.739Z,11.18
2022-10-28T20:29:04.244Z,11.00
2022-10-28T20:31:36.111Z,13.95
2022-10-28T20:34:04.227Z,15.02
2022-10-28T20:36:39.111Z,12.65
2022-10-28T20:39:15.846Z,13.45
2022-10-28T20:41:47.096Z,15.23
2022-10-28T20:44:17.567Z,15.60
2022-10-28T20:46:45.100Z,18.30
2022-10-28T20:49:12.376Z,19.60
2022-10-28T20:51:40.369Z,19.23
2022-10-28T20:54:07.646Z,15.07
2022-10-28T20:56:37.201Z,14.30
2022-10-28T20:59:07.335Z,13.98
2022-10-28T21:01:41.107Z,12.15
2022-10-28T21:04:10.415Z,13.55
2022-10-28T21:06:41.480Z,14.70
2022-10-28T21:09:11.023Z,15.98
2022-10-28T21:11:38.724Z,16.20
2022-10-28T21:14:06.014Z,13.93
2022-10-28T21:16:33.297Z,13.98
2022-10-28T21:19:00.851Z,11.38
2022-10-28T21:21:28.692Z,11.68
2022-10-28T21:23:59.609Z,10.65
2022-10-28T21:26:27.236Z,8.32
2022-10-28T21:28:54.241Z,11.05
2022-10-28T21:31:21.953Z,12.02
2022-10-28T21:33:51.756Z,14.40
2022-10-28T21:36:21.064Z,15.30
2022-10-28T21:38:48.139Z,18.92
2022-10-28T21:41:18.666Z,14.32
2022-10-28T21:43:49.837Z,13.60
2022-10-28T21:46:22.195Z,11.23
2022-10-28T21:48:49.405Z,18.20
2022-10-28T21:51:17.922Z,14.52
2022-10-28T21:53:47.634Z,14.30
2022-10-28T21:56:18.759Z,13.23
2022-10-28T21:58:48.619Z,10.73
2022-10-28T22:01:24.406Z,7.97
2022-10-28T22:03:55.321Z,9.10
2022-10-28T22:06:25.094Z,12.55
2022-10-28T22:08:58.476Z,12.13
2022-10-28T22:14:01.831Z,11.45
2022-10-28T22:16:30.934Z,11.48
2022-10-28T22:18:59.455Z,11.57
2022-10-28T22:21:29.933Z,10.40
2022-10-28T22:23:57.675Z,11.35
2022-10-28T22:26:27.871Z,8.57
2022-10-28T22:28:56.453Z,12.35
2022-10-28T22:31:27.148Z,11.63
2022-10-28T22:33:56.951Z,12.77
2022-10-28T22:36:26.726Z,12.65
2022-10-28T22:38:54.084Z,14.48
2022-10-28T22:41:26.810Z,11.57
2022-10-28T22:43:56.468Z,13.10
2022-10-28T22:46:25.818Z,11.85
2022-10-28T22:48:53.502Z,10.38
2022-10-28T22:51:20.853Z,9.98
2022-10-28T22:53:49.411Z,10.82
2022-10-28T22:56:23.022Z,8.75
2022-10-28T22:58:58.291Z,10.57
2022-10-28T23:01:27.066Z,10.35
2022-10-28T23:03:55.359Z,12.38
2022-10-28T23:06:24.397Z,12.35
2022-10-28T23:08:51.867Z,11.20
2022-10-28T23:11:20.821Z,14.52
2022-10-28T23:13:51.609Z,11.95
2022-10-28T23:16:22.029Z,8.82
2022-10-28T23:18:49.672Z,10.82
2022-10-28T23:21:22.507Z,12.10
2022-10-28T23:23:57.016Z,12.02
2022-10-28T23:26:25.605Z,14.02
2022-10-28T23:28:55.569Z,9.50
2022-10-28T23:31:23.602Z,10.02
2022-10-28T23:33:52.370Z,9.35
2022-10-28T23:36:21.052Z,12.75
2022-10-28T23:38:48.381Z,11.18
2022-10-28T23:41:17.210Z,8.98
2022-10-28T23:43:45.122Z,14.02
2022-10-28T23:46:12.216Z,10.93
2022-10-28T23:48:41.773Z,10.93
2022-10-28T23:51:09.695Z,11.43
2022-10-28T23:53:39.056Z,11.55
2022-10-28T23:56:06.919Z,13.45
2022-10-28T23:58:36.708Z,20.00
